Terminal Aerodrome Forecast
Issued by NWS Wilmington, OH

Current Version | Previous Version | Graphics & Text | Print | Product List | Glossary On
Versions: 1 2 3 4 5 6 7 8 9 10 11 12 13 14
575
FTUS41 KILN 172333
TAFCMH
TAF
KCMH 172333Z 1800/1824 32008KT P6SM BKN035
     FM180300 VRB03KT P6SM SCT200
     FM181200 15005KT P6SM BKN080
     FM181400 14008KT P6SM BKN035
     FM182300 21010G20KT P6SM BKN025=

USA.gov is the U.S. government's official web portal to all federal, state and local government web resources and services.